Terminal Aerodrome Forecast
Issued by NWS Brownsville, TX

Home | Current Version | Previous Version | Text Only | Print | Product List | Glossary On
Versions: 1 2 3 4 5 6 7 8 9 10 11 12 13 14 15 16 17 18 19 20
000
FTUS44 KBRO 241700
TAFHRL
TAF
KHRL 241724Z 2418/2518 18020G25KT P6SM SCT035
     FM242200 14012G18KT P6SM FEW040
     FM250300 12010KT P6SM BKN018
     FM250800 13005KT 4SM BR OVC004
     FM251400 11005KT 5SM BR OVC008=

USA.gov is the U.S. government's official web portal to all federal, state and local government web resources and services.